Time;durP1;ratioP1;P1;durP2;ratioP2;P2;SDS_P1;SDS_P2;PMS_P1;PMS_P2;Temp;Humidity;BMP_temperature;BMP_pressure;BME280_temperature;BME280_humidity;BME280_pressure;Samples;Min_cycle;Max_cycle;Signal;HPM_P1;HPM_P2
2022/03/25 00:00:25;;;;;;;12.80;7.60;;;12.30;29.90;;;12.51;26.10;95284.06;5077079;28;20545;-57
2022/03/25 00:02:52;;;;;;;7.77;6.47;;;12.30;29.90;;;12.52;25.86;95284.91;5069633;28;20481;-57
2022/03/25 00:05:20;;;;;;;20.93;6.70;;;12.30;29.90;;;12.51;26.04;95275.31;5076243;28;20840;-56
2022/03/25 00:07:48;;;;;;;13.80;6.37;;;12.40;29.90;;;12.49;26.13;95280.72;5076537;28;20502;-56
2022/03/25 00:10:15;;;;;;;8.97;6.30;;;12.30;29.90;;;12.50;25.91;95273.63;5070264;28;20450;-57
2022/03/25 00:12:42;;;;;;;10.03;6.27;;;12.30;29.80;;;12.50;25.98;95276.28;5079998;28;20476;-57
2022/03/25 00:15:11;;;;;;;13.83;6.43;;;12.30;29.80;;;12.49;26.03;95275.44;5081253;28;20485;-57
2022/03/25 00:17:39;;;;;;;10.80;6.60;;;12.30;29.80;;;12.50;26.01;95271.00;5074235;28;20474;-56
2022/03/25 00:20:08;;;;;;;17.10;7.27;;;12.30;29.80;;;12.48;26.06;95265.88;5079657;28;20453;-56
2022/03/25 00:22:35;;;;;;;10.43;7.07;;;12.30;29.90;;;12.46;26.03;95267.81;5063985;28;20479;-55
2022/03/25 00:25:04;;;;;;;12.33;6.83;;;12.30;30.00;;;12.45;26.11;95267.97;5074471;28;20533;-57
2022/03/25 00:27:32;;;;;;;14.40;7.27;;;12.30;30.00;;;12.40;26.10;95260.47;5076268;28;20469;-58
2022/03/25 00:30:00;;;;;;;11.60;7.13;;;12.20;30.40;;;12.38;25.77;95265.06;5074721;28;20455;-57
2022/03/25 00:32:28;;;;;;;10.57;6.40;;;12.20;30.00;;;12.36;26.12;95261.72;5074450;28;20569;-56
2022/03/25 00:34:56;;;;;;;12.97;7.33;;;12.20;30.00;;;12.33;26.25;95260.22;5080228;28;21099;-57
2022/03/25 00:37:25;;;;;;;31.73;12.20;;;12.20;30.10;;;12.31;26.38;95264.78;5074078;28;20459;-56
2022/03/25 00:39:52;;;;;;;17.03;7.00;;;12.20;30.10;;;12.29;26.25;95255.38;5075107;28;20489;-58
2022/03/25 00:42:19;;;;;;;12.10;5.67;;;12.10;30.00;;;12.25;26.37;95256.59;5076933;28;20477;-56
2022/03/25 00:44:47;;;;;;;14.13;6.10;;;12.10;30.10;;;12.19;26.16;95261.47;5072292;28;20474;-57
2022/03/25 00:47:15;;;;;;;14.00;7.00;;;12.10;30.20;;;12.16;26.40;95255.63;5074978;28;20929;-58
2022/03/25 00:49:43;;;;;;;11.70;7.23;;;12.00;30.20;;;12.11;26.56;95248.13;5078934;28;20549;-57
2022/03/25 00:52:11;;;;;;;10.30;6.37;;;12.00;30.40;;;12.06;26.41;95242.47;5071776;28;20548;-57
2022/03/25 00:54:38;;;;;;;15.47;7.37;;;11.90;30.40;;;11.99;26.53;95239.56;5067851;28;20454;-56
2022/03/25 00:57:06;;;;;;;17.70;7.03;;;11.90;30.50;;;11.93;26.64;95242.75;5081984;28;20483;-57
2022/03/25 00:59:33;;;;;;;11.37;6.00;;;11.80;30.60;;;11.90;26.84;95237.72;5065666;28;20450;-55
2022/03/25 01:02:01;;;;;;;13.57;7.23;;;11.80;30.60;;;11.86;26.93;95236.34;5071985;28;20478;-57
2022/03/25 01:04:28;;;;;;;7.47;6.03;;;11.80;30.70;;;11.84;26.77;95230.38;5079876;28;20515;-57
2022/03/25 01:06:57;;;;;;;10.30;7.40;;;11.70;31.00;;;11.81;27.05;95230.66;5070160;28;21295;-56
2022/03/25 01:09:24;;;;;;;11.00;6.77;;;11.70;31.00;;;11.77;27.01;95230.09;5075943;28;20450;-56
2022/03/25 01:11:52;;;;;;;12.93;5.90;;;11.70;30.90;;;11.75;27.06;95228.56;5079708;28;21066;-56
2022/03/25 01:14:19;;;;;;;13.13;6.90;;;11.60;31.00;;;11.71;26.96;95225.38;5072099;28;20446;-57
2022/03/25 01:16:47;;;;;;;16.50;8.37;;;11.60;31.00;;;11.70;26.78;95217.63;5079212;28;20498;-57
2022/03/25 01:19:14;;;;;;;17.47;7.10;;;11.60;31.00;;;11.70;27.04;95218.44;5071492;28;20448;-57
2022/03/25 01:21:41;;;;;;;29.50;7.00;;;11.50;30.90;;;11.68;27.14;95209.84;5071232;28;21002;-58
2022/03/25 01:24:10;;;;;;;10.60;6.50;;;11.50;31.60;;;11.66;26.86;95217.03;5075160;28;20468;-57
2022/03/25 01:26:37;;;;;;;9.77;6.57;;;11.50;30.90;;;11.65;26.88;95207.50;5077224;28;20506;-56
2022/03/25 01:29:06;;;;;;;9.13;6.53;;;11.50;30.90;;;11.66;27.06;95219.69;5075087;28;20465;-57
2022/03/25 01:31:34;;;;;;;7.57;5.90;;;11.50;30.90;;;11.65;27.14;95215.41;5079468;28;20462;-55
2022/03/25 01:34:01;;;;;;;14.50;6.57;;;11.50;30.90;;;11.63;27.06;95222.59;5071374;28;21022;-56
2022/03/25 01:36:30;;;;;;;10.90;6.07;;;11.50;30.90;;;11.60;27.02;95228.13;5072877;28;20486;-57
2022/03/25 01:38:58;;;;;;;15.33;6.87;;;11.50;30.90;;;11.59;27.14;95221.22;5080129;28;20954;-56
2022/03/25 01:41:26;;;;;;;10.93;6.40;;;11.50;30.90;;;11.61;27.15;95229.81;5071747;28;20450;-57
2022/03/25 01:43:55;;;;;;;8.13;6.10;;;11.50;30.90;;;11.62;26.98;95236.75;5069006;28;20533;-57
2022/03/25 01:46:22;;;;;;;11.67;6.43;;;11.50;30.90;;;11.61;27.05;95235.06;5079444;28;20455;-56
2022/03/25 01:48:50;;;;;;;12.23;6.57;;;11.50;30.90;;;11.60;27.09;95238.66;5072960;28;20904;-56
2022/03/25 01:51:18;;;;;;;11.70;6.73;;;11.50;31.00;;;11.58;27.07;95246.72;5074142;28;20459;-56
2022/03/25 01:53:47;;;;;;;10.43;6.00;;;11.50;30.90;;;11.58;27.22;95246.72;5077522;28;20903;-57
2022/03/25 01:56:22;;;;;;;15.87;7.50;;;11.50;30.90;;;11.55;27.30;95243.53;5068925;28;20568;-55
2022/03/25 01:58:50;;;;;;;13.93;7.13;;;11.40;31.10;;;11.47;27.45;95236.31;5073637;28;21106;-57
2022/03/25 02:01:18;;;;;;;11.70;6.90;;;11.40;31.30;;;11.39;27.33;95236.97;5079918;28;20520;-57
2022/03/25 02:03:46;;;;;;;13.10;8.00;;;11.30;31.50;;;11.32;27.71;95241.13;5068045;28;20488;-57
2022/03/25 02:06:13;;;;;;;12.27;8.30;;;11.20;31.60;;;11.21;27.69;95234.16;5074859;28;20464;-56
2022/03/25 02:08:41;;;;;;;12.93;7.20;;;11.10;31.60;;;11.11;27.73;95231.50;5077188;28;20993;-56
2022/03/25 02:11:09;;;;;;;10.90;7.40;;;11.00;31.70;;;11.06;27.59;95231.09;5071544;28;20528;-57
2022/03/25 02:13:37;;;;;;;11.47;7.27;;;11.00;31.80;;;11.01;27.76;95229.81;5076989;28;20521;-57
2022/03/25 02:16:07;;;;;;;9.90;6.97;;;10.90;31.90;;;11.00;27.89;95231.63;5064948;28;20589;-57
2022/03/25 02:18:35;;;;;;;22.07;7.13;;;10.90;31.90;;;11.00;27.88;95229.00;5070467;28;20554;-57
2022/03/25 02:21:02;;;;;;;10.07;6.90;;;10.90;31.90;;;11.01;27.86;95221.91;5078708;28;20464;-56
2022/03/25 02:23:31;;;;;;;9.40;5.90;;;10.90;31.90;;;11.03;27.71;95228.72;5071812;28;20475;-57
2022/03/25 02:25:58;;;;;;;8.73;6.43;;;10.90;31.90;;;11.06;27.83;95230.22;5070376;28;21046;-57
2022/03/25 02:28:25;;;;;;;10.90;6.40;;;10.90;31.90;;;11.08;27.79;95223.06;5075726;28;20462;-56
2022/03/25 02:30:52;;;;;;;14.47;6.97;;;11.00;31.90;;;11.10;27.85;95227.19;5068045;28;20570;-55
2022/03/25 02:33:19;;;;;;;11.70;7.30;;;11.00;31.90;;;11.12;27.84;95230.56;5072999;28;20981;-57
2022/03/25 02:35:48;;;;;;;24.97;7.57;;;11.00;31.90;;;11.15;27.86;95223.34;5078527;28;20489;-55
2022/03/25 02:38:16;;;;;;;11.40;6.67;;;11.00;31.90;;;11.16;27.65;95214.50;5064502;28;20471;-57
2022/03/25 02:40:45;;;;;;;13.90;7.83;;;11.00;31.80;;;11.18;27.85;95217.81;5072969;28;20450;-57
2022/03/25 02:43:13;;;;;;;25.27;7.83;;;11.00;31.80;;;11.18;27.43;95223.06;5074913;28;20847;-56
2022/03/25 02:45:40;;;;;;;15.07;6.93;;;11.10;31.80;;;11.18;27.77;95223.91;5072954;28;20463;-60
2022/03/25 02:48:08;;;;;;;17.93;6.90;;;11.10;31.90;;;11.17;27.76;95214.34;5074070;28;20551;-56
2022/03/25 02:50:35;;;;;;;15.70;7.70;;;11.10;31.90;;;11.16;27.77;95223.22;5072319;28;20455;-59
2022/03/25 02:53:03;;;;;;;17.17;8.10;;;11.00;31.80;;;11.15;27.66;95221.53;5054499;28;20479;-57
2022/03/25 02:55:30;;;;;;;12.37;7.53;;;11.00;31.80;;;11.13;27.96;95219.03;5068479;28;21187;-56
2022/03/25 02:57:59;;;;;;;11.77;7.43;;;11.00;32.00;;;11.12;27.57;95224.44;5075757;28;20474;-57
2022/03/25 03:00:27;;;;;;;14.87;7.80;;;11.00;31.90;;;11.05;27.61;95218.88;5067471;28;20442;-55
2022/03/25 03:02:54;;;;;;;18.63;7.90;;;11.00;31.90;;;11.09;28.04;95227.34;5076161;28;20473;-56
2022/03/25 03:05:22;;;;;;;16.10;8.43;;;11.00;32.00;;;11.07;28.05;95216.94;5078289;28;20529;-57
2022/03/25 03:07:49;;;;;;;21.43;7.67;;;10.90;32.00;;;11.05;27.75;95218.06;5069273;28;20849;-56
2022/03/25 03:10:16;;;;;;;11.47;6.97;;;11.00;32.00;;;11.03;27.94;95215.56;5075616;28;20498;-57
2022/03/25 03:12:44;;;;;;;13.97;6.80;;;10.90;32.00;;;11.03;27.89;95215.56;5077355;28;20477;-57
2022/03/25 03:15:15;;;;;;;12.77;6.80;;;10.90;32.00;;;11.04;27.80;95208.50;5068215;28;20538;-57
2022/03/25 03:17:43;;;;;;;9.33;6.60;;;10.90;31.90;;;11.03;28.06;95225.22;5070882;28;20876;-56
2022/03/25 03:20:12;;;;;;;11.47;8.27;;;10.90;31.90;;;11.03;28.10;95210.28;5076155;28;21004;-58
2022/03/25 03:22:39;;;;;;;24.00;7.10;;;10.90;32.00;;;11.03;28.03;95217.34;5071329;28;20473;-57
2022/03/25 03:25:07;;;;;;;16.10;7.53;;;10.90;31.90;;;11.02;27.95;95227.03;5076484;28;20823;-56
2022/03/25 03:27:34;;;;;;;12.30;6.67;;;10.90;32.00;;;11.02;27.89;95228.84;5065869;28;20474;-56
2022/03/25 03:30:02;;;;;;;12.43;7.30;;;10.90;32.70;;;11.00;28.11;95229.00;5072226;28;20485;-56
2022/03/25 03:32:30;;;;;;;11.83;7.33;;;10.90;32.10;;;11.01;28.20;95230.63;5078180;28;20501;-56
2022/03/25 03:34:58;;;;;;;13.90;7.07;;;10.90;32.10;;;11.00;27.82;95225.50;5070402;28;20539;-57
2022/03/25 03:37:26;;;;;;;14.97;7.27;;;10.90;32.10;;;10.98;27.96;95232.72;5070411;28;20555;-58
2022/03/25 03:39:53;;;;;;;13.13;8.10;;;10.90;32.10;;;10.94;28.30;95232.97;5078898;28;21054;-57
2022/03/25 03:42:20;;;;;;;10.60;6.83;;;10.80;32.10;;;10.90;28.08;95228.94;5073989;28;20479;-57
2022/03/25 03:44:47;;;;;;;9.50;6.43;;;10.80;32.20;;;10.88;28.14;95235.31;5074715;28;20454;-57
2022/03/25 03:47:15;;;;;;;19.83;6.83;;;10.80;32.30;;;10.86;28.15;95240.72;5082447;28;20559;-57
2022/03/25 03:49:43;;;;;;;14.50;6.90;;;10.70;32.90;;;10.85;28.02;95235.59;5067938;28;20461;-56
2022/03/25 03:52:11;;;;;;;25.67;7.87;;;10.70;32.30;;;10.86;28.04;95237.22;5073077;28;20520;-56
2022/03/25 03:54:38;;;;;;;15.13;7.10;;;10.70;32.30;;;10.86;28.23;95226.69;5081119;28;20453;-57
2022/03/25 03:57:07;;;;;;;7.43;5.87;;;10.70;32.20;;;10.86;27.97;95230.19;5074757;28;20617;-57
2022/03/25 03:59:34;;;;;;;14.63;6.40;;;10.70;32.20;;;10.88;28.05;95237.94;5078342;28;21022;-57
2022/03/25 04:02:03;;;;;;;13.60;6.43;;;10.80;32.50;;;10.88;28.23;95235.31;5082995;28;20525;-57
2022/03/25 04:04:30;;;;;;;18.53;6.40;;;10.80;32.40;;;10.88;28.06;95236.13;5063615;28;20455;-56
2022/03/25 04:06:59;;;;;;;11.50;7.10;;;10.80;32.30;;;10.88;28.32;95237.94;5076440;28;20475;-56
2022/03/25 04:09:26;;;;;;;12.83;6.73;;;10.80;32.30;;;10.86;28.33;95226.69;5082401;28;20481;-57
2022/03/25 04:11:54;;;;;;;13.97;7.27;;;10.80;32.30;;;10.86;28.24;95239.84;5069278;28;20470;-57
2022/03/25 04:14:21;;;;;;;11.40;7.53;;;10.70;32.20;;;10.84;28.32;95231.28;5075803;28;20443;-58
2022/03/25 04:16:48;;;;;;;11.27;7.87;;;10.70;32.20;;;10.85;28.28;95243.47;5079897;28;20490;-58
2022/03/25 04:19:15;;;;;;;16.50;8.00;;;10.70;32.30;;;10.84;28.49;95241.78;5067863;28;20446;-57
2022/03/25 04:21:43;;;;;;;11.23;7.47;;;10.70;32.30;;;10.81;28.25;95235.00;5079512;28;20479;-57
2022/03/25 04:24:11;;;;;;;16.33;7.90;;;10.70;32.40;;;10.81;28.39;95242.06;5069975;28;20467;-57
2022/03/25 04:26:39;;;;;;;12.33;7.63;;;10.70;32.40;;;10.79;28.50;95236.09;5068665;28;20485;-58
2022/03/25 04:29:07;;;;;;;11.20;6.80;;;10.70;32.50;;;10.77;28.50;95241.50;5075399;28;20450;-58
2022/03/25 04:31:35;;;;;;;11.53;7.30;;;10.70;32.60;;;10.74;28.48;95239.97;5071666;28;20955;-58
2022/03/25 04:34:03;;;;;;;17.17;8.17;;;10.60;32.50;;;10.73;28.33;95238.28;5075995;28;20435;-57
2022/03/25 04:36:30;;;;;;;13.87;7.73;;;10.60;32.50;;;10.72;28.33;95244.53;5072601;28;20494;-58
2022/03/25 04:38:58;;;;;;;21.77;7.70;;;10.60;32.60;;;10.70;28.37;95245.63;5064863;28;20530;-58
2022/03/25 04:41:27;;;;;;;13.27;8.83;;;10.60;33.30;;;10.68;28.85;95247.56;5070103;28;20455;-57
2022/03/25 04:43:54;;;;;;;17.53;7.23;;;10.60;32.90;;;10.64;28.53;95252.22;5073340;28;20465;-57
2022/03/25 04:46:21;;;;;;;9.20;6.17;;;10.50;32.60;;;10.62;28.52;95248.06;5069004;28;20456;-58
2022/03/25 04:48:49;;;;;;;17.37;7.57;;;10.50;32.90;;;10.62;28.54;95248.91;5065541;28;20455;-58
2022/03/25 04:51:16;;;;;;;14.97;8.37;;;10.50;32.90;;;10.62;28.62;95251.53;5074527;28;21048;-57
2022/03/25 04:53:43;;;;;;;11.87;7.07;;;10.50;32.80;;;10.63;28.62;95255.84;5062330;28;20459;-56
2022/03/25 04:56:14;;;;;;;17.00;7.50;;;10.50;32.80;;;10.63;28.49;95260.25;5074189;28;20996;-56
2022/03/25 04:58:42;;;;;;;14.57;8.60;;;10.50;33.00;;;10.63;28.65;95258.47;5072728;28;20997;-57
2022/03/25 05:01:09;;;;;;;14.67;7.90;;;10.50;33.00;;;10.66;28.67;95254.72;5069358;28;20447;-58
2022/03/25 05:03:37;;;;;;;13.27;9.03;;;10.50;33.00;;;10.66;28.88;95255.56;5068024;28;21002;-56
2022/03/25 05:06:05;;;;;;;24.43;8.77;;;10.50;33.00;;;10.68;28.59;95260.72;5079886;28;20465;-57
2022/03/25 05:08:32;;;;;;;18.80;9.23;;;10.60;33.00;;;10.70;28.90;95261.41;5067867;28;20463;-57
2022/03/25 05:11:00;;;;;;;25.63;9.07;;;10.60;33.10;;;10.75;29.25;95256.56;5077989;28;20457;-58
2022/03/25 05:13:27;;;;;;;20.57;7.30;;;10.60;33.30;;;10.85;28.84;95267.16;5078985;28;20480;-57
2022/03/25 05:15:56;;;;;;;12.93;8.47;;;10.70;33.10;;;10.99;28.68;95261.53;5070095;28;20797;-57
2022/03/25 05:18:24;;;;;;;16.77;8.30;;;10.80;33.40;;;11.15;28.59;95265.47;5071489;28;20477;-59
2022/03/25 05:20:51;;;;;;;15.27;7.53;;;11.00;33.10;;;11.27;28.37;95269.66;5068736;28;20447;-57
2022/03/25 05:23:18;;;;;;;15.07;7.87;;;11.10;32.70;;;11.34;28.21;95268.16;5070063;28;20478;-58
2022/03/25 05:25:46;;;;;;;15.30;7.30;;;11.20;32.60;;;11.41;28.21;95265.81;5073196;28;20449;-58
2022/03/25 05:28:13;;;;;;;15.10;7.80;;;11.30;32.60;;;11.49;28.34;95260.69;5067890;28;20588;-58
2022/03/25 05:30:40;;;;;;;15.33;8.53;;;11.40;32.60;;;11.56;28.20;95267.09;5070085;28;20451;-57
2022/03/25 05:33:09;;;;;;;14.73;8.50;;;11.40;32.50;;;11.59;28.23;95268.63;5072228;28;20482;-56
2022/03/25 05:35:36;;;;;;;17.03;8.00;;;11.50;32.50;;;11.61;28.10;95264.06;5077259;28;20617;-58
2022/03/25 05:38:04;;;;;;;11.87;7.90;;;11.50;32.50;;;11.63;28.19;95270.88;5062261;28;20505;-56
2022/03/25 05:40:32;;;;;;;14.13;8.23;;;11.50;32.70;;;11.66;28.38;95269.75;5078406;28;20825;-57
2022/03/25 05:42:59;;;;;;;19.27;9.77;;;11.50;32.90;;;11.69;28.33;95269.47;5076118;28;20481;-56
2022/03/25 05:45:27;;;;;;;16.07;8.13;;;11.50;32.80;;;11.72;28.82;95274.47;5073759;28;20554;-58
2022/03/25 05:47:55;;;;;;;30.57;10.37;;;11.60;33.10;;;11.75;28.84;95262.81;5080225;28;20922;-58
2022/03/25 05:50:24;;;;;;;15.03;8.83;;;11.60;33.70;;;11.79;28.63;95272.97;5068753;28;20486;-59
2022/03/25 05:52:51;;;;;;;27.70;8.33;;;11.60;33.30;;;11.89;28.78;95272.13;5073876;28;20458;-58
2022/03/25 05:55:19;;;;;;;25.50;9.63;;;11.70;33.50;;;12.01;28.74;95278.97;5073558;28;20465;-58
2022/03/25 05:57:46;;;;;;;22.70;9.60;;;11.80;33.80;;;12.19;29.41;95277.31;5072227;28;20990;-61
2022/03/25 06:00:15;;;;;;;15.03;8.47;;;11.90;34.80;;;12.41;28.70;95282.41;5067586;28;20894;-57
2022/03/25 06:02:43;;;;;;;18.37;7.40;;;12.10;33.70;;;12.62;28.42;95271.69;5077253;28;21052;-57
2022/03/25 06:05:10;;;;;;;13.33;7.60;;;12.30;33.00;;;12.87;28.08;95281.63;5062459;28;20455;-58
2022/03/25 06:07:40;;;;;;;16.00;7.80;;;12.60;32.80;;;13.14;27.74;95277.34;5070066;28;20498;-56
2022/03/25 06:10:08;;;;;;;16.90;8.00;;;12.80;32.50;;;13.41;27.90;95278.38;5073662;28;20444;-58
2022/03/25 06:12:36;;;;;;;13.33;8.47;;;13.00;32.10;;;13.67;27.51;95277.69;5065958;28;20485;-67
2022/03/25 06:15:04;;;;;;;16.70;7.80;;;13.30;32.40;;;13.95;27.43;95275.81;5069565;28;20967;-56
2022/03/25 06:17:31;;;;;;;10.80;7.00;;;13.60;32.30;;;14.24;26.88;95280.06;5070326;28;20495;-58
2022/03/25 06:19:58;;;;;;;9.90;6.30;;;13.80;31.70;;;14.52;26.54;95286.06;5067522;28;20885;-57
2022/03/25 06:22:27;;;;;;;10.30;7.43;;;14.10;31.50;;;14.82;26.59;95282.16;5068036;28;20463;-58
2022/03/25 06:24:56;;;;;;;15.77;7.97;;;14.40;31.40;;;15.12;26.39;95285.31;5069272;28;20447;-58
2022/03/25 06:27:23;;;;;;;12.40;7.70;;;14.70;31.10;;;15.42;26.13;95289.25;5068512;28;20549;-59
2022/03/25 06:29:50;;;;;;;12.50;8.10;;;15.00;30.90;;;15.73;27.05;95283.41;5070852;28;20446;-58
2022/03/25 06:32:17;;;;;;;23.67;9.70;;;15.30;32.60;;;16.06;27.26;95293.28;5067331;28;20469;-56
2022/03/25 06:34:45;;;;;;;13.40;7.93;;;15.60;32.60;;;16.42;26.81;95285.03;5069246;28;20447;-57
2022/03/25 06:37:12;;;;;;;15.17;8.30;;;16.00;32.40;;;16.75;26.50;95287.69;5070877;28;20830;-56
2022/03/25 06:39:39;;;;;;;13.53;8.50;;;16.30;32.20;;;17.09;25.23;95284.84;5069071;28;20760;-57
2022/03/25 06:42:08;;;;;;;26.70;9.03;;;16.60;30.50;;;17.38;26.51;95288.72;5069321;28;20462;-58
2022/03/25 06:44:36;;;;;;;14.30;8.30;;;16.90;32.10;;;17.63;26.52;95280.63;5072407;28;20466;-59
2022/03/25 06:47:03;;;;;;;26.77;9.47;;;17.20;32.90;;;17.91;25.23;95295.19;5065617;28;20469;-57
2022/03/25 06:49:31;;;;;;;11.50;8.03;;;17.40;30.50;;;18.17;24.73;95288.72;5069171;28;20446;-57
2022/03/25 06:51:59;;;;;;;15.40;8.00;;;17.70;30.30;;;18.48;24.58;95289.66;5071355;28;20959;-57
2022/03/25 06:54:27;;;;;;;13.87;8.43;;;18.00;29.30;;;18.77;23.90;95295.06;5065701;28;20499;-55
2022/03/25 06:56:56;;;;;;;14.57;8.93;;;18.30;28.80;;;19.04;23.06;95292.84;5069844;28;21022;-58
2022/03/25 06:59:26;;;;;;;13.27;9.00;;;18.50;28.30;;;19.31;23.15;95285.22;5075604;28;20442;-58
2022/03/25 07:01:54;;;;;;;21.90;10.27;;;18.80;27.80;;;19.42;22.27;95291.94;5070202;28;20473;-56
2022/03/25 07:04:22;;;;;;;15.13;8.87;;;19.00;27.10;;;19.55;22.11;95288.63;5074137;28;20455;-58
2022/03/25 07:06:50;;;;;;;14.37;9.87;;;19.10;27.40;;;19.82;22.70;95297.84;5079804;28;20708;-58
2022/03/25 07:09:18;;;;;;;11.63;8.83;;;19.30;27.60;;;20.13;22.48;95291.41;5059770;28;20524;-56
2022/03/25 07:11:47;;;;;;;24.10;9.93;;;19.60;27.20;;;20.45;22.15;95286.59;5074911;28;20471;-59
2022/03/25 07:14:14;;;;;;;14.23;8.87;;;19.90;27.10;;;20.72;20.66;95290.38;5076223;28;20985;-58
2022/03/25 07:16:43;;;;;;;17.93;9.10;;;20.20;26.00;;;20.84;21.28;95288.00;5069304;28;20473;-57
2022/03/25 07:19:10;;;;;;;14.60;10.67;;;20.40;26.30;;;21.05;21.23;95293.31;5078884;28;20450;-59
2022/03/25 07:21:38;;;;;;;31.30;12.37;;;20.50;26.30;;;21.30;21.02;95292.84;5077962;28;20474;-58
2022/03/25 07:24:06;;;;;;;26.63;14.87;;;20.80;26.40;;;21.46;20.22;95305.91;5071536;28;20545;-57
2022/03/25 07:26:33;;;;;;;32.40;13.60;;;21.00;25.30;;;21.41;20.54;95292.31;5077678;28;20469;-56
2022/03/25 07:29:01;;;;;;;45.30;12.77;;;21.00;25.50;;;21.30;20.39;95290.16;5079032;28;20455;-58
2022/03/25 07:31:28;;;;;;;24.23;12.87;;;20.90;25.30;;;21.34;20.39;95291.44;5074012;28;20450;-56
2022/03/25 07:33:57;;;;;;;23.23;12.60;;;20.90;25.60;;;21.57;20.78;95301.91;5078227;28;20486;-57
2022/03/25 07:36:24;;;;;;;29.27;13.87;;;21.00;25.90;;;21.89;21.05;95299.59;5073835;28;20444;-56
2022/03/25 07:38:51;;;;;;;34.00;14.57;;;21.30;26.70;;;22.32;19.98;95302.03;5068035;28;20487;-59
2022/03/25 07:41:19;;;;;;;23.40;12.80;;;21.70;25.50;;;22.68;19.95;95291.97;5079279;28;20450;-58
2022/03/25 07:43:46;;;;;;;19.17;12.03;;;22.00;25.40;;;23.05;20.44;95297.75;5074324;28;20455;-57
2022/03/25 07:46:13;;;;;;;22.37;12.63;;;22.40;26.10;;;23.47;19.46;95298.38;5073353;28;20451;-56
2022/03/25 07:48:41;;;;;;;28.10;14.50;;;22.80;24.80;;;23.63;19.08;95300.59;5074529;28;20469;-57
2022/03/25 07:51:10;;;;;;;33.40;13.20;;;23.20;24.60;;;23.79;19.80;95298.47;5069354;28;20472;-56
2022/03/25 07:53:37;;;;;;;28.67;13.13;;;23.40;24.70;;;24.06;18.95;95299.22;5072837;28;20450;-57
2022/03/25 07:56:05;;;;;;;23.97;13.00;;;23.70;23.90;;;24.33;19.38;95289.16;5075648;28;20441;-56
2022/03/25 07:58:33;;;;;;;55.47;14.50;;;24.10;24.90;;;24.68;18.66;95298.72;5073766;28;21033;-58
2022/03/25 08:01:00;;;;;;;23.77;13.33;;;24.50;23.90;;;24.83;18.40;95299.22;5076747;28;20507;-57
2022/03/25 08:03:28;;;;;;;21.80;12.57;;;24.80;23.90;;;24.93;17.95;95289.84;5081088;28;20474;-58
2022/03/25 08:05:55;;;;;;;22.93;12.70;;;24.90;23.40;;;25.04;18.66;95289.94;5071720;28;20451;-59
2022/03/25 08:08:24;;;;;;;30.97;14.40;;;25.00;23.70;;;25.22;18.31;95299.94;5072555;28;20478;-58
2022/03/25 08:10:55;;;;;;;21.80;13.50;;;25.10;23.20;;;25.21;17.96;95289.38;5075415;28;20862;-57
2022/03/25 08:13:23;;;;;;;24.93;12.63;;;25.10;23.00;;;25.26;18.37;95299.50;5071579;28;20465;-58
2022/03/25 08:15:50;;;;;;;22.00;12.30;;;25.10;23.40;;;25.27;17.73;95293.88;5069157;28;20764;-55
2022/03/25 08:18:18;;;;;;;99.07;14.30;;;25.10;22.60;;;25.19;17.52;95292.31;5074279;28;20509;-56
2022/03/25 08:20:46;;;;;;;24.13;12.30;;;25.10;22.60;;;25.17;17.63;95290.88;5070942;28;20474;-55
2022/03/25 08:27:48;;;;;;;44.10;13.50;;;25.10;23.20;;;25.27;18.04;95298.44;5076160;28;21132;-57
2022/03/25 08:28:48;;;;;;;31.37;11.50;;;25.40;23.10;;;25.56;18.02;95287.00;5075101;28;20430;-57
2022/03/25 08:31:15;;;;;;;55.50;14.53;;;25.60;23.00;;;25.53;17.13;95292.00;5079596;28;20991;-58
2022/03/25 08:33:43;;;;;;;27.37;11.80;;;25.60;22.20;;;25.40;17.28;95288.38;5078457;28;20462;-57
2022/03/25 08:36:10;;;;;;;31.20;11.63;;;25.50;22.20;;;25.45;16.71;95284.22;5074726;28;20447;-56
2022/03/25 08:38:38;;;;;;;17.33;11.90;;;25.40;22.30;;;25.52;17.22;95285.78;5079649;28;20496;-57
2022/03/25 08:41:06;;;;;;;52.60;14.07;;;25.50;22.70;;;25.59;16.41;95283.84;5070451;28;20529;-57
2022/03/25 08:43:34;;;;;;;22.27;11.27;;;25.60;21.90;;;25.51;16.95;95288.72;5071537;28;20551;-56
2022/03/25 08:46:01;;;;;;;23.30;11.83;;;25.50;22.20;;;25.36;16.56;95284.50;5077765;28;20865;-60
2022/03/25 08:48:29;;;;;;;24.73;11.50;;;25.30;21.90;;;25.14;17.02;95280.53;5070456;28;20845;-56
2022/03/25 08:50:56;;;;;;;44.20;10.37;;;25.10;22.00;;;25.04;17.42;95279.16;5073864;28;20450;-57
2022/03/25 08:53:23;;;;;;;40.77;10.80;;;24.80;22.30;;;24.94;16.79;95276.16;5077507;28;21076;-57
2022/03/25 08:55:51;;;;;;;30.87;12.30;;;24.70;21.90;;;24.67;16.30;95276.34;5065077;28;20446;-58
2022/03/25 08:58:20;;;;;;;25.90;11.90;;;24.50;21.90;;;24.26;17.35;95272.25;5076542;28;20567;-58
2022/03/25 09:00:47;;;;;;;100.07;14.90;;;24.10;22.10;;;24.14;17.00;95260.53;5079706;28;20454;-56
2022/03/25 09:03:15;;;;;;;29.17;10.73;;;23.90;22.30;;;24.09;17.67;95269.25;5064830;28;20463;-57
2022/03/25 09:05:42;;;;;;;25.87;9.93;;;23.70;22.60;;;24.28;16.59;95259.41;5077785;28;20462;-58
2022/03/25 09:08:09;;;;;;;27.73;10.93;;;23.80;22.10;;;24.38;16.64;95248.19;5082873;28;20481;-57
2022/03/25 09:10:37;;;;;;;21.83;9.00;;;23.90;21.90;;;24.38;16.97;95263.50;5072154;28;20447;-57
2022/03/25 09:13:04;;;;;;;15.13;9.90;;;24.00;21.90;;;24.48;17.06;95253.09;5078176;28;20879;-56
2022/03/25 09:15:33;;;;;;;20.07;9.50;;;24.00;21.90;;;24.62;16.72;95254.66;5077142;28;20479;-56
2022/03/25 09:18:01;;;;;;;24.37;10.37;;;24.10;21.70;;;24.73;16.56;95242.38;5065515;28;20556;-57
2022/03/25 09:20:28;;;;;;;43.80;10.13;;;24.20;22.10;;;24.93;17.13;95266.44;5068291;28;20451;-56
2022/03/25 09:22:55;;;;;;;22.83;9.63;;;24.40;21.80;;;25.03;16.36;95255.16;5071579;28;20474;-58
2022/03/25 09:25:23;;;;;;;14.20;8.27;;;24.50;21.50;;;25.05;16.62;95247.69;5072588;28;20462;-57
2022/03/25 09:27:50;;;;;;;14.80;10.33;;;24.50;21.50;;;25.09;15.88;95254.28;5077553;28;20474;-57
2022/03/25 09:30:18;;;;;;;15.10;10.17;;;24.60;21.20;;;25.15;15.86;95247.19;5075773;28;20814;-57
2022/03/25 09:32:46;;;;;;;29.93;9.40;;;24.70;21.30;;;25.09;16.25;95256.16;5066267;28;20466;-56
2022/03/25 09:35:14;;;;;;;21.73;9.90;;;24.60;21.00;;;24.97;15.93;95251.50;5080709;28;20476;-56
2022/03/25 09:37:43;;;;;;;18.23;8.57;;;24.50;21.20;;;24.74;15.53;95245.88;5064302;28;20487;-57
2022/03/25 09:40:13;;;;;;;14.27;8.30;;;24.40;20.70;;;24.66;16.79;95250.50;5070776;28;20950;-57
2022/03/25 09:42:40;;;;;;;15.50;9.53;;;24.30;21.60;;;24.74;16.13;95252.13;5078037;28;20575;-57
2022/03/25 09:45:09;;;;;;;15.20;9.10;;;24.30;21.70;;;24.84;15.33;95244.34;5068002;28;21180;-58
2022/03/25 09:47:37;;;;;;;26.63;8.20;;;24.40;21.00;;;24.90;15.35;95234.59;5074096;28;20475;-58
2022/03/25 09:50:09;;;;;;;22.37;9.33;;;24.40;20.60;;;24.97;16.13;95245.28;5081816;28;20446;-58
2022/03/25 09:52:36;;;;;;;24.80;9.37;;;24.50;21.50;;;25.09;16.20;95253.47;5067283;28;20953;-58
2022/03/25 09:55:04;;;;;;;19.40;8.90;;;24.50;21.60;;;25.17;15.95;95232.44;5074045;28;20457;-58
2022/03/25 09:57:32;;;;;;;14.43;8.53;;;24.70;21.30;;;25.20;15.64;95239.28;5074805;28;20470;-57
2022/03/25 09:59:59;;;;;;;18.40;9.03;;;24.70;21.30;;;25.24;16.47;95229.72;5067578;28;20988;-57
2022/03/25 10:02:28;;;;;;;11.63;7.83;;;24.80;21.50;;;25.21;15.96;95230.16;5072439;28;20574;-57
2022/03/25 10:04:56;;;;;;;13.00;8.13;;;24.80;21.30;;;25.31;15.52;95233.16;5075497;28;20468;-58
2022/03/25 10:07:26;;;;;;;21.20;7.93;;;24.80;20.90;;;25.35;16.06;95244.34;5069788;28;20551;-57
2022/03/25 10:10:08;;;;;;;10.87;8.30;;;24.80;20.90;;;25.46;15.25;95237.38;5075640;28;20454;-56
2022/03/25 10:12:36;;;;;;;25.53;8.60;;;24.90;20.90;;;25.41;15.80;95244.25;5068854;28;20474;-58
2022/03/25 10:15:18;;;;;;;15.73;7.57;;;24.90;20.90;;;25.44;15.63;95221.44;5071049;28;20447;-59
2022/03/25 10:17:50;;;;;;;19.80;8.57;;;24.90;20.90;;;25.50;16.46;95242.09;5075298;28;20754;-57